Time;durP1;ratioP1;P1;durP2;ratioP2;P2;SDS_P1;SDS_P2;PMS_P1;PMS_P2;Temp;Humidity;BMP_temperature;BMP_pressure;BME280_temperature;BME280_humidity;BME280_pressure;Samples;Min_cycle;Max_cycle;Signal;HPM_P1;HPM_P2
2023/01/10 00:01:17;;;;;;;30.13;12.63;;;;;;;-145.18;100.00;60484.78;5049613;28;20040;-70
2023/01/10 00:03:42;;;;;;;35.73;13.03;;;;;;;-145.18;100.00;60484.78;5048614;28;20029;-70
2023/01/10 00:06:08;;;;;;;33.60;13.90;;;;;;;-145.18;100.00;60484.78;5051629;28;20028;-69
2023/01/10 00:08:33;;;;;;;35.60;13.70;;;;;;;-145.18;100.00;60484.78;5051885;28;20025;-69
2023/01/10 00:13:21;;;;;;;33.20;12.10;;;;;;;-145.18;100.00;60484.78;5051902;28;20064;-69
2023/01/10 00:13:44;;;;;;;27.50;10.20;;;;;;;-145.18;100.00;60484.78;5051488;28;20490;-69
2023/01/10 00:16:09;;;;;;;29.63;12.90;;;;;;;-145.18;100.00;60484.78;5052138;28;20113;-69
2023/01/10 00:18:34;;;;;;;31.70;12.67;;;;;;;-145.18;100.00;60484.78;5052198;28;20059;-72
2023/01/10 00:21:00;;;;;;;27.77;12.23;;;;;;;-145.18;100.00;60484.78;5051496;28;20021;-69
2023/01/10 00:23:26;;;;;;;27.50;11.17;;;;;;;-145.18;100.00;60484.78;5033577;28;20025;-69
2023/01/10 00:25:51;;;;;;;29.03;11.50;;;;;;;-145.18;100.00;60484.78;5032070;28;20606;-70
2023/01/10 00:30:42;;;;;;;24.83;10.47;;;;;;;-145.18;100.00;60484.78;5047814;28;20059;-70
2023/01/10 00:33:08;;;;;;;20.17;8.50;;;;;;;-145.18;100.00;60484.78;5052034;28;20025;-69
2023/01/10 00:35:33;;;;;;;29.43;9.90;;;;;;;-145.18;100.00;60484.78;5051701;28;20393;-69
2023/01/10 00:38:06;;;;;;;24.03;9.47;;;;;;;-145.18;100.00;60484.78;5051365;28;20033;-70
2023/01/10 00:40:32;;;;;;;24.40;8.83;;;;;;;-145.18;100.00;60484.78;5051255;28;20025;-69
2023/01/10 00:45:44;;;;;;;26.93;9.33;;;;;;;-145.18;100.00;60484.78;5044463;28;20035;-69
2023/01/10 00:48:11;;;;;;;21.47;7.57;;;;;;;-145.18;100.00;60484.78;5051413;28;20512;-69
2023/01/10 00:50:36;;;;;;;19.77;7.70;;;;;;;-145.18;100.00;60484.78;5050998;28;20039;-69
2023/01/10 00:53:02;;;;;;;15.80;7.30;;;;;;;-145.18;100.00;60484.78;5051279;28;20017;-70
2023/01/10 00:55:27;;;;;;;18.77;6.83;;;;;;;-145.18;100.00;60484.78;5051122;28;20056;-70
2023/01/10 00:57:52;;;;;;;22.37;7.80;;;;;;;-145.18;100.00;60484.78;5050602;28;20029;-69
2023/01/10 01:00:18;;;;;;;18.00;6.63;;;;;;;-145.18;100.00;60484.78;5051166;28;20492;-69
2023/01/10 01:02:43;;;;;;;13.30;4.80;;;;;;;-145.18;100.00;60484.78;5051276;28;20024;-69
2023/01/10 01:05:09;;;;;;;21.07;8.57;;;;;;;-145.18;100.00;60484.78;5049977;28;20480;-70
2023/01/10 01:07:34;;;;;;;17.13;6.47;;;;;;;-145.18;100.00;60484.78;5051021;28;20112;-69
2023/01/10 01:12:43;;;;;;;13.93;5.73;;;;;;;-145.18;100.00;60484.78;5050437;28;20166;-70
2023/01/10 01:15:09;;;;;;;18.10;5.03;;;;;;;-145.18;100.00;60484.78;5050145;28;20025;-70
2023/01/10 01:17:34;;;;;;;12.57;5.50;;;;;;;-145.18;100.00;60484.78;5047695;28;20392;-69
2023/01/10 01:19:59;;;;;;;15.80;4.80;;;;;;;-145.18;100.00;60484.78;5050780;28;20100;-69
2023/01/10 01:22:25;;;;;;;14.67;5.67;;;;;;;-145.18;100.00;60484.78;5051198;28;20048;-69
2023/01/10 01:24:50;;;;;;;15.50;5.67;;;;;;;-145.18;100.00;60484.78;5050098;28;20025;-69
2023/01/10 01:27:15;;;;;;;14.33;5.37;;;;;;;-145.18;100.00;60484.78;5050121;28;20108;-70
2023/01/10 01:29:41;;;;;;;21.73;5.20;;;;;;;-145.18;100.00;60484.78;5050041;28;20032;-70
2023/01/10 01:32:06;;;;;;;16.53;4.97;;;;;;;-145.18;100.00;60484.78;5050788;28;20071;-70
2023/01/10 01:34:32;;;;;;;14.63;4.80;;;;;;;-145.18;100.00;60484.78;5053387;28;20035;-69
2023/01/10 01:36:57;;;;;;;17.77;4.83;;;;;;;-145.18;100.00;60484.78;5054956;28;20048;-69
2023/01/10 01:39:23;;;;;;;13.67;4.73;;;;;;;-145.18;100.00;60484.78;5054905;28;20036;-70
2023/01/10 01:41:57;;;;;;;11.60;4.30;;;;;;;-145.18;100.00;60484.78;5055205;28;20025;-69
2023/01/10 01:44:28;;;;;;;16.03;4.37;;;;;;;-145.18;100.00;60484.78;5054284;28;20059;-70
2023/01/10 01:47:01;;;;;;;17.40;4.80;;;;;;;-145.18;100.00;60484.78;5054424;28;20112;-69
2023/01/10 01:49:29;;;;;;;14.93;4.60;;;;;;;-145.18;100.00;60484.78;5054785;28;20477;-70
2023/01/10 01:51:59;;;;;;;13.97;4.43;;;;;;;-145.18;100.00;60484.78;5054745;28;20020;-69
2023/01/10 01:54:26;;;;;;;17.73;4.47;;;;;;;-145.18;100.00;60484.78;5052976;28;20047;-69
2023/01/10 01:57:05;;;;;;;15.70;4.83;;;;;;;-145.18;100.00;60484.78;5053240;28;20025;-69
2023/01/10 01:59:42;;;;;;;14.80;4.20;;;;;;;-145.18;100.00;60484.78;5052018;28;20055;-69
2023/01/10 02:02:13;;;;;;;14.83;4.20;;;;;;;-145.18;100.00;60484.78;5054616;28;20017;-68
2023/01/10 02:04:54;;;;;;;;;;;;;;;-145.18;100.00;60484.78;5054069;22;20061;-73
2023/01/10 02:07:22;;;;;;;15.40;4.93;;;;;;;-145.18;100.00;60484.78;5048436;28;19971;-75
2023/01/10 02:09:53;;;;;;;21.50;5.03;;;;;;;-145.18;100.00;60484.78;5052851;28;20093;-74
2023/01/10 02:12:18;;;;;;;18.87;4.73;;;;;;;-145.18;100.00;60484.78;5054351;28;20033;-76
2023/01/10 02:14:45;;;;;;;13.93;4.30;;;;;;;-145.18;100.00;60484.78;5049792;28;20161;-78
2023/01/10 02:17:11;;;;;;;12.50;4.03;;;;;;;-145.18;100.00;60484.78;5054089;28;20025;-77
2023/01/10 02:19:55;;;;;;;16.70;5.27;;;;;;;-145.18;100.00;60484.78;5053846;28;20052;-78
2023/01/10 02:22:41;;;;;;;18.83;5.33;;;;;;;-145.18;100.00;60484.78;5054319;28;20468;-77
2023/01/10 02:25:44;;;;;;;13.80;5.40;;;;;;;-145.18;100.00;60484.78;5053911;28;20476;-77
2023/01/10 02:28:37;;;;;;;18.90;5.27;;;;;;;-145.18;100.00;60484.78;5053147;28;20078;-75
2023/01/10 02:31:33;;;;;;;18.17;5.80;;;;;;;-145.18;100.00;60484.78;5051130;28;20531;-75
2023/01/10 02:34:20;;;;;;;15.83;5.10;;;;;;;-145.18;100.00;60484.78;5053648;28;20063;-76
2023/01/10 02:37:16;;;;;;;14.90;4.03;;;;;;;-145.18;100.00;60484.78;5041032;28;20078;-75
2023/01/10 02:39:57;;;;;;;29.63;6.27;;;;;;;-145.18;100.00;60484.78;5053805;28;20040;-74
2023/01/10 02:42:34;;;;;;;15.70;4.47;;;;;;;-145.18;100.00;60484.78;5053780;28;20099;-74
2023/01/10 02:45:08;;;;;;;16.93;5.07;;;;;;;-145.18;100.00;60484.78;5048898;28;20060;-75
2023/01/10 02:47:39;;;;;;;17.67;5.07;;;;;;;-145.18;100.00;60484.78;5049736;28;20135;-74
2023/01/10 02:50:43;;;;;;;20.70;5.40;;;;;;;-145.18;100.00;60484.78;5053361;28;20043;-76
2023/01/10 02:53:20;;;;;;;14.87;4.43;;;;;;;-145.18;100.00;60484.78;5051477;28;20102;-75
2023/01/10 02:56:02;;;;;;;20.83;4.90;;;;;;;-145.18;100.00;60484.78;5053948;28;20075;-76
2023/01/10 02:59:01;;;;;;;20.92;5.05;;;;;;;-145.18;100.00;60484.78;5052781;28;20526;-75
2023/01/10 03:01:44;;;;;;;17.83;5.17;;;;;;;-145.18;100.00;60484.78;5052808;28;20049;-75
2023/01/10 03:04:44;;;;;;;17.67;5.00;;;;;;;-145.18;100.00;60484.78;5039749;28;20040;-75
2023/01/10 03:07:34;;;;;;;24.97;5.60;;;;;;;-145.18;100.00;60484.78;5045367;28;20033;-75
2023/01/10 03:10:06;;;;;;;16.57;5.07;;;;;;;-145.18;100.00;60484.78;5033984;28;20367;-76
2023/01/10 03:12:38;;;;;;;20.60;5.63;;;;;;;-145.18;100.00;60484.78;5052574;28;20028;-75
2023/01/10 03:15:05;;;;;;;;;;;;;;;-145.18;100.00;60484.78;5049290;28;20418;-74
2023/01/10 03:17:30;;;;;;;14.10;4.37;;;;;;;-145.18;100.00;60484.78;5034039;28;20044;-68
2023/01/10 03:20:01;;;;;;;22.60;5.37;;;;;;;-145.18;100.00;60484.78;5052927;28;20029;-68
2023/01/10 03:22:30;;;;;;;20.53;5.40;;;;;;;-145.18;100.00;60484.78;5053178;28;20036;-67
2023/01/10 03:24:58;;;;;;;18.63;4.90;;;;;;;-145.18;100.00;60484.78;5053146;28;20427;-68
2023/01/10 03:27:37;;;;;;;26.53;6.87;;;;;;;-145.18;100.00;60484.78;5052408;28;20440;-68
2023/01/10 03:30:12;;;;;;;21.47;5.57;;;;;;;-145.18;100.00;60484.78;5037907;28;20424;-68
2023/01/10 03:32:38;;;;;;;23.53;5.67;;;;;;;-145.18;100.00;60484.78;5043861;28;20484;-68
2023/01/10 03:35:05;;;;;;;25.87;5.83;;;;;;;-145.18;100.00;60484.78;5052728;28;20068;-68
2023/01/10 03:37:42;;;;;;;25.70;5.33;;;;;;;-145.18;100.00;60484.78;5053026;28;20484;-68
2023/01/10 03:40:35;;;;;;;22.73;5.70;;;;;;;-145.18;100.00;60484.78;5052968;28;20476;-68
2023/01/10 03:46:32;;;;;;;33.27;6.20;;;;;;;-145.18;100.00;60484.78;5037231;28;20106;-67
2023/01/10 03:48:59;;;;;;;18.27;5.10;;;;;;;-145.18;100.00;60484.78;5053474;28;20055;-68
2023/01/10 03:51:26;;;;;;;24.23;4.87;;;;;;;-145.18;100.00;60484.78;5052902;28;20464;-67
2023/01/10 03:53:52;;;;;;;29.20;5.87;;;;;;;-145.18;100.00;60484.78;5052223;28;20056;-68
2023/01/10 03:56:17;;;;;;;25.93;5.03;;;;;;;-145.18;100.00;60484.78;5051764;28;20166;-67
2023/01/10 03:58:42;;;;;;;29.37;5.83;;;;;;;-145.18;100.00;60484.78;5052680;28;20191;-68
2023/01/10 04:01:08;;;;;;;18.93;5.00;;;;;;;-145.18;100.00;60484.78;5045551;28;20024;-68
2023/01/10 04:03:33;;;;;;;18.20;4.43;;;;;;;-145.18;100.00;60484.78;5050805;28;20400;-67
2023/01/10 04:05:58;;;;;;;25.30;5.07;;;;;;;-145.18;100.00;60484.78;5042474;28;20598;-68
2023/01/10 04:08:24;;;;;;;25.47;5.23;;;;;;;-145.18;100.00;60484.78;5052378;28;20490;-67
2023/01/10 04:10:49;;;;;;;22.93;4.93;;;;;;;-145.18;100.00;60484.78;5052342;28;20040;-67
2023/01/10 04:13:15;;;;;;;23.27;4.67;;;;;;;-145.18;100.00;60484.78;5052478;28;20096;-67
2023/01/10 04:15:40;;;;;;;24.77;5.03;;;;;;;-145.18;100.00;60484.78;5051278;28;20431;-67
2023/01/10 04:18:05;;;;;;;30.93;4.87;;;;;;;-145.18;100.00;60484.78;5039480;28;20029;-67
2023/01/10 04:20:31;;;;;;;23.60;5.03;;;;;;;-145.18;100.00;60484.78;5048671;28;20423;-67
2023/01/10 04:22:56;;;;;;;26.57;5.07;;;;;;;-145.18;100.00;60484.78;5052313;28;20083;-67
2023/01/10 04:25:22;;;;;;;18.77;4.57;;;;;;;-145.18;100.00;60484.78;5052149;28;20039;-70
2023/01/10 04:27:49;;;;;;;23.17;4.03;;;;;;;-145.18;100.00;60484.78;5051844;28;20036;-70
2023/01/10 04:30:15;;;;;;;18.47;4.10;;;;;;;-145.18;100.00;60484.78;5038660;28;20517;-70
2023/01/10 04:32:41;;;;;;;20.17;4.47;;;;;;;-145.18;100.00;60484.78;5042181;28;20115;-70
2023/01/10 04:35:07;;;;;;;23.57;4.30;;;;;;;-145.18;100.00;60484.78;5049576;28;20120;-67
2023/01/10 04:37:33;;;;;;;21.57;4.67;;;;;;;-145.18;100.00;60484.78;5048907;28;20022;-67
2023/01/10 04:39:58;;;;;;;22.77;4.33;;;;;;;-145.18;100.00;60484.78;5051853;28;20025;-67
2023/01/10 04:42:23;;;;;;;24.90;6.20;;;;;;;-145.18;100.00;60484.78;5052215;28;20100;-68
2023/01/10 04:44:49;;;;;;;23.93;5.50;;;;;;;-145.18;100.00;60484.78;5051235;28;20082;-68
2023/01/10 04:47:15;;;;;;;21.83;4.70;;;;;;;-145.18;100.00;60484.78;5051695;28;20037;-67
2023/01/10 04:49:40;;;;;;;21.57;6.50;;;;;;;-145.18;100.00;60484.78;5051992;28;20380;-67
2023/01/10 04:52:06;;;;;;;32.63;7.67;;;;;;;-145.18;100.00;60484.78;5050700;28;20513;-67
2023/01/10 04:54:31;;;;;;;31.27;8.83;;;;;;;-145.18;100.00;60484.78;5067018;28;20021;-67
2023/01/10 04:56:56;;;;;;;28.80;8.90;;;;;;;-145.18;100.00;60484.78;5050245;28;20032;-68
2023/01/10 04:59:22;;;;;;;29.77;8.60;;;;;;;-145.18;100.00;60484.78;5041239;28;20175;-68
2023/01/10 05:01:48;;;;;;;24.30;7.87;;;;;;;-145.18;100.00;60484.78;5046801;28;20037;-67
2023/01/10 05:04:13;;;;;;;24.17;7.23;;;;;;;-145.18;100.00;60484.78;5040534;28;20038;-67
2023/01/10 05:06:39;;;;;;;22.13;5.33;;;;;;;-145.18;100.00;60484.78;5047356;28;20036;-68
2023/01/10 05:09:06;;;;;;;26.20;5.50;;;;;;;-145.18;100.00;60484.78;5051252;28;20051;-68
2023/01/10 05:11:32;;;;;;;24.83;4.97;;;;;;;-145.18;100.00;60484.78;5048192;28;20033;-67
2023/01/10 05:13:57;;;;;;;20.77;5.30;;;;;;;-145.18;100.00;60484.78;5048028;28;20032;-67
2023/01/10 05:16:24;;;;;;;20.57;4.50;;;;;;;-145.18;100.00;60484.78;5050789;28;20024;-67
2023/01/10 05:18:49;;;;;;;20.53;4.50;;;;;;;-145.18;100.00;60484.78;5051047;28;20025;-67
2023/01/10 05:21:15;;;;;;;20.43;4.67;;;;;;;-145.18;100.00;60484.78;5051249;28;20037;-68
2023/01/10 05:23:41;;;;;;;19.57;4.37;;;;;;;-145.18;100.00;60484.78;5047503;28;20051;-70
2023/01/10 05:26:12;;;;;;;19.10;3.93;;;;;;;-145.18;100.00;60484.78;5050970;28;20119;-70
2023/01/10 05:28:37;;;;;;;19.55;4.15;;;;;;;-145.18;100.00;60484.78;5044418;28;20030;-71
2023/01/10 05:31:05;;;;;;;31.13;4.53;;;;;;;-145.18;100.00;60484.78;5044315;28;20041;-71
2023/01/10 05:33:31;;;;;;;22.80;4.67;;;;;;;-145.18;100.00;60484.78;5032934;28;20432;-70
2023/01/10 05:35:56;;;;;;;19.93;4.67;;;;;;;-145.18;100.00;60484.78;5051126;28;20017;-70
2023/01/10 05:38:22;;;;;;;21.70;4.90;;;;;;;-145.18;100.00;60484.78;5051252;28;20029;-71
2023/01/10 05:40:47;;;;;;;19.97;5.20;;;;;;;-145.18;100.00;60484.78;5047729;28;20029;-69
2023/01/10 05:43:12;;;;;;;24.47;5.30;;;;;;;-145.18;100.00;60484.78;5051274;28;20029;-69
2023/01/10 05:45:38;;;;;;;18.40;4.93;;;;;;;-145.18;100.00;60484.78;5046066;28;20030;-68
2023/01/10 05:48:03;;;;;;;19.33;5.83;;;;;;;-145.18;100.00;60484.78;5050229;28;20028;-68
2023/01/10 05:50:28;;;;;;;29.53;6.73;;;;;;;-145.18;100.00;60484.78;5050694;28;20024;-68
2023/01/10 05:52:54;;;;;;;33.07;6.30;;;;;;;-145.18;100.00;60484.78;5047049;28;20057;-69
2023/01/10 05:55:19;;;;;;;18.00;5.10;;;;;;;-145.18;100.00;60484.78;5050350;28;20025;-68
2023/01/10 05:57:45;;;;;;;34.37;6.80;;;;;;;-145.18;100.00;60484.78;5051022;28;20025;-68
2023/01/10 06:00:11;;;;;;;19.07;5.23;;;;;;;-145.18;100.00;60484.78;5051213;28;20031;-68
2023/01/10 06:02:36;;;;;;;21.73;5.43;;;;;;;-145.18;100.00;60484.78;5046072;28;20041;-68
2023/01/10 06:05:02;;;;;;;24.13;5.67;;;;;;;-145.18;100.00;60484.78;5050723;28;20560;-68
2023/01/10 06:07:27;;;;;;;22.23;5.93;;;;;;;-145.18;100.00;60484.78;5050552;28;20041;-69
2023/01/10 06:09:52;;;;;;;16.83;5.57;;;;;;;-145.18;100.00;60484.78;5050369;28;20048;-67
2023/01/10 06:12:18;;;;;;;23.97;5.50;;;;;;;-145.18;100.00;60484.78;5050894;28;20488;-68
2023/01/10 06:14:44;;;;;;;16.20;5.30;;;;;;;-145.18;100.00;60484.78;5050925;28;20540;-68
2023/01/10 06:17:10;;;;;;;20.83;5.80;;;;;;;-145.18;100.00;60484.78;5050632;28;20108;-68
2023/01/10 06:19:35;;;;;;;22.27;6.40;;;;;;;-145.18;100.00;60484.78;5051244;28;20028;-68
2023/01/10 06:22:02;;;;;;;22.10;5.30;;;;;;;-145.18;100.00;60484.78;5042726;28;20025;-68
2023/01/10 06:24:27;;;;;;;25.70;6.07;;;;;;;-145.18;100.00;60484.78;5054410;28;20029;-69
2023/01/10 06:26:53;;;;;;;17.43;5.83;;;;;;;-145.18;100.00;60484.78;5053927;28;20028;-68
2023/01/10 06:29:18;;;;;;;17.07;4.83;;;;;;;-145.18;100.00;60484.78;5046372;28;20017;-69
2023/01/10 06:31:43;;;;;;;20.43;5.57;;;;;;;-145.18;100.00;60484.78;5054536;28;20528;-68
2023/01/10 06:34:09;;;;;;;20.50;5.33;;;;;;;-145.18;100.00;60484.78;5054440;28;20029;-68
2023/01/10 06:36:34;;;;;;;17.63;5.43;;;;;;;-145.18;100.00;60484.78;5053715;28;20029;-68
2023/01/10 06:39:00;;;;;;;27.27;6.50;;;;;;;-145.18;100.00;60484.78;5053982;28;20029;-68
2023/01/10 06:41:25;;;;;;;20.03;6.17;;;;;;;-145.18;100.00;60484.78;5054275;28;20537;-68
2023/01/10 06:43:51;;;;;;;27.53;5.00;;;;;;;-145.18;100.00;60484.78;5053667;28;20059;-68
2023/01/10 06:46:18;;;;;;;21.53;5.67;;;;;;;-145.18;100.00;60484.78;5054174;28;20029;-68
2023/01/10 06:48:44;;;;;;;29.80;7.20;;;;;;;-145.18;100.00;60484.78;5054042;28;20052;-68
2023/01/10 06:51:11;;;;;;;20.90;5.10;;;;;;;-145.18;100.00;60484.78;5053823;28;20059;-68
2023/01/10 06:53:36;;;;;;;16.73;5.07;;;;;;;-145.18;100.00;60484.78;5054086;28;20033;-68
2023/01/10 06:56:02;;;;;;;22.83;5.37;;;;;;;-145.18;100.00;60484.78;5043248;28;20013;-68
2023/01/10 06:58:28;;;;;;;25.80;6.30;;;;;;;-145.18;100.00;60484.78;5042743;28;20043;-69
2023/01/10 07:00:53;;;;;;;20.00;6.47;;;;;;;-145.18;100.00;60484.78;5049340;28;20532;-69
2023/01/10 07:03:19;;;;;;;21.90;6.13;;;;;;;-145.18;100.00;60484.78;5047663;28;20029;-69
2023/01/10 07:05:44;;;;;;;22.13;6.90;;;;;;;-145.18;100.00;60484.78;5049414;28;20033;-68
2023/01/10 07:08:10;;;;;;;26.67;6.37;;;;;;;-145.18;100.00;60484.78;5042077;28;20025;-68
2023/01/10 07:10:35;;;;;;;22.03;6.40;;;;;;;-145.18;100.00;60484.78;5054013;28;20017;-68
2023/01/10 07:13:00;;;;;;;28.07;6.13;;;;;;;-145.18;100.00;60484.78;5053607;28;20096;-68
2023/01/10 07:15:27;;;;;;;22.87;5.80;;;;;;;-145.18;100.00;60484.78;5053561;28;20036;-68
2023/01/10 07:17:54;;;;;;;23.10;5.80;;;;;;;-145.18;100.00;60484.78;5050439;28;20033;-68
2023/01/10 07:20:20;;;;;;;22.03;5.83;;;;;;;-145.18;100.00;60484.78;5054014;28;20392;-68
2023/01/10 07:22:55;;;;;;;20.13;6.33;;;;;;;-145.18;100.00;60484.78;5053487;28;20025;-69
2023/01/10 07:25:22;;;;;;;18.17;6.13;;;;;;;-145.18;100.00;60484.78;5039819;28;20131;-69
2023/01/10 07:27:47;;;;;;;18.87;6.00;;;;;;;-145.18;100.00;60484.78;5049812;28;20029;-68
2023/01/10 07:30:13;;;;;;;21.70;6.53;;;;;;;-145.18;100.00;60484.78;5053147;28;20025;-69
2023/01/10 07:32:38;;;;;;;24.83;5.93;;;;;;;-145.18;100.00;60484.78;5052291;28;20025;-68
2023/01/10 07:35:04;;;;;;;25.17;6.13;;;;;;;-145.18;100.00;60484.78;5053575;28;20028;-70
2023/01/10 07:37:29;;;;;;;27.17;6.60;;;;;;;-145.18;100.00;60484.78;5053134;28;20469;-68
2023/01/10 07:39:55;;;;;;;18.80;6.10;;;;;;;-145.18;100.00;60484.78;5053312;28;20028;-68
2023/01/10 07:42:20;;;;;;;25.57;6.17;;;;;;;-145.18;100.00;60484.78;5050155;28;20048;-69
2023/01/10 07:44:46;;;;;;;21.13;6.13;;;;;;;-145.18;100.00;60484.78;5052577;28;20551;-70
2023/01/10 07:47:11;;;;;;;21.47;6.30;;;;;;;-145.18;100.00;60484.78;5052961;28;20108;-69
2023/01/10 07:49:36;;;;;;;30.03;7.43;;;;;;;-145.18;100.00;60484.78;5052748;28;20043;-69
2023/01/10 07:52:02;;;;;;;25.60;7.87;;;;;;;-145.18;100.00;60484.78;5053187;28;20088;-68
2023/01/10 07:54:27;;;;;;;20.77;6.33;;;;;;;-145.18;100.00;60484.78;5053079;28;20464;-68
2023/01/10 07:56:53;;;;;;;25.57;7.03;;;;;;;-145.18;100.00;60484.78;5052981;28;20021;-69
2023/01/10 07:59:18;;;;;;;30.73;8.10;;;;;;;-145.18;100.00;60484.78;5052948;28;20563;-69
2023/01/10 08:01:43;;;;;;;21.43;7.33;;;;;;;-145.18;100.00;60484.78;5052543;28;20024;-69
2023/01/10 08:04:09;;;;;;;26.27;7.23;;;;;;;-145.18;100.00;60484.78;5052623;28;20094;-69
2023/01/10 08:06:34;;;;;;;23.63;7.53;;;;;;;-145.18;100.00;60484.78;5049943;28;20013;-68
2023/01/10 08:09:02;;;;;;;33.80;7.57;;;;;;;-145.18;100.00;60484.78;5052062;28;20051;-68
2023/01/10 08:11:28;;;;;;;21.37;7.13;;;;;;;-145.18;100.00;60484.78;5052808;28;20039;-69
2023/01/10 08:13:53;;;;;;;28.57;7.03;;;;;;;-145.18;100.00;60484.78;5052801;28;20025;-71
2023/01/10 08:16:19;;;;;;;23.27;6.47;;;;;;;-145.18;100.00;60484.78;5052738;28;20422;-69
2023/01/10 08:18:45;;;;;;;27.43;6.17;;;;;;;-145.18;100.00;60484.78;5052442;28;20104;-71
2023/01/10 08:21:10;;;;;;;23.87;6.17;;;;;;;-145.18;100.00;60484.78;5052538;28;20117;-69
2023/01/10 08:23:36;;;;;;;24.80;6.27;;;;;;;-145.18;100.00;60484.78;5052239;28;20068;-69
2023/01/10 08:26:01;;;;;;;22.80;6.23;;;;;;;-145.18;100.00;60484.78;5052474;28;20020;-70
2023/01/10 08:28:27;;;;;;;22.30;5.60;;;;;;;-145.18;100.00;60484.78;5052236;28;20044;-69
2023/01/10 08:30:54;;;;;;;19.37;7.00;;;;;;;-145.18;100.00;60484.78;5052551;28;20021;-68
2023/01/10 08:33:22;;;;;;;15.63;5.23;;;;;;;-145.18;100.00;60484.78;5052293;28;20021;-67
2023/01/10 08:35:47;;;;;;;20.33;6.30;;;;;;;-145.18;100.00;60484.78;5051976;28;20027;-67
2023/01/10 08:38:13;;;;;;;22.20;7.03;;;;;;;-145.18;100.00;60484.78;5052465;28;20025;-68
2023/01/10 08:40:38;;;;;;;20.07;5.87;;;;;;;-145.18;100.00;60484.78;5051942;28;20147;-68
2023/01/10 08:43:10;;;;;;;21.80;6.70;;;;;;;-145.18;100.00;60484.78;5051687;28;20013;-67
2023/01/10 08:45:36;;;;;;;23.93;7.70;;;;;;;-145.18;100.00;60484.78;5052091;28;20049;-67
2023/01/10 08:48:03;;;;;;;22.10;7.83;;;;;;;-145.18;100.00;60484.78;5051984;28;20461;-67
2023/01/10 08:50:29;;;;;;;19.13;6.80;;;;;;;-145.18;100.00;60484.78;5052125;28;20389;-67
2023/01/10 08:52:58;;;;;;;24.77;7.43;;;;;;;-145.18;100.00;60484.78;5051857;28;20029;-68
2023/01/10 08:55:24;;;;;;;26.03;8.73;;;;;;;-145.18;100.00;60484.78;5051237;28;20358;-69
2023/01/10 08:57:49;;;;;;;28.03;8.07;;;;;;;-145.18;100.00;60484.78;5039102;28;20025;-67
2023/01/10 09:00:15;;;;;;;22.30;8.53;;;;;;;-145.18;100.00;60484.78;5031945;28;20536;-67
2023/01/10 09:02:40;;;;;;;20.97;7.20;;;;;;;-145.18;100.00;60484.78;5031844;28;20033;-68
2023/01/10 09:05:06;;;;;;;29.63;8.80;;;;;;;-145.18;100.00;60484.78;5032081;28;20033;-68
2023/01/10 09:07:32;;;;;;;29.37;9.60;;;;;;;-145.18;100.00;60484.78;5043671;28;20013;-69
2023/01/10 09:09:57;;;;;;;32.97;8.87;;;;;;;-145.18;100.00;60484.78;5050955;28;20039;-70
2023/01/10 09:15:08;;;;;;;25.67;8.40;;;;;;;-145.18;100.00;60484.78;5050007;28;20048;-70
2023/01/10 09:17:33;;;;;;;20.83;8.87;;;;;;;-145.18;100.00;60484.78;5049429;28;20021;-70
2023/01/10 09:19:59;;;;;;;27.37;9.00;;;;;;;-145.18;100.00;60484.78;5045969;28;20546;-70
2023/01/10 09:22:24;;;;;;;31.97;10.77;;;;;;;-145.18;100.00;60484.78;5046157;28;20396;-70
2023/01/10 09:24:49;;;;;;;22.73;8.73;;;;;;;-145.18;100.00;60484.78;5038806;28;20028;-70
2023/01/10 09:27:15;;;;;;;21.87;9.23;;;;;;;-145.18;100.00;60484.78;5051397;28;20121;-70
2023/01/10 09:29:40;;;;;;;22.13;8.37;;;;;;;-145.18;100.00;60484.78;5051181;28;20021;-70
2023/01/10 09:32:06;;;;;;;19.43;9.00;;;;;;;-145.18;100.00;60484.78;5051140;28;20503;-70
2023/01/10 09:34:31;;;;;;;23.37;11.07;;;;;;;-145.18;100.00;60484.78;5050352;28;20032;-70
2023/01/10 09:36:57;;;;;;;36.20;10.40;;;;;;;-145.18;100.00;60484.78;5051084;28;20048;-67
2023/01/10 09:39:22;;;;;;;22.43;8.07;;;;;;;-145.18;100.00;60484.78;5049830;28;20162;-67
2023/01/10 09:41:57;;;;;;;24.70;9.27;;;;;;;-145.18;100.00;60484.78;5050349;28;20494;-67
2023/01/10 09:44:41;;;;;;;30.53;10.30;;;;;;;-145.18;100.00;60484.78;5051277;28;20036;-67
2023/01/10 09:47:46;;;;;;;24.73;8.90;;;;;;;-145.18;100.00;60484.78;5050686;28;20388;-67
2023/01/10 09:50:14;;;;;;;25.93;9.23;;;;;;;-145.18;100.00;60484.78;5039092;28;20052;-67
2023/01/10 09:53:07;;;;;;;24.17;8.93;;;;;;;-145.18;100.00;60484.78;5047394;28;20035;-68
2023/01/10 09:55:36;;;;;;;24.43;8.30;;;;;;;-145.18;100.00;60484.78;5046145;28;20542;-68
2023/01/10 09:58:18;;;;;;;28.17;8.80;;;;;;;-145.18;100.00;60484.78;5055296;28;20542;-67
2023/01/10 10:01:00;;;;;;;21.30;8.30;;;;;;;-145.18;100.00;60484.78;5054403;28;20098;-67
2023/01/10 10:03:50;;;;;;;22.50;8.40;;;;;;;-145.18;100.00;60484.78;5049781;28;20472;-67
2023/01/10 10:06:15;;;;;;;24.73;8.20;;;;;;;-145.18;100.00;60484.78;5052511;28;20032;-66
2023/01/10 10:08:43;;;;;;;26.17;8.67;;;;;;;-145.18;100.00;60484.78;5047613;28;20032;-67
2023/01/10 10:11:24;;;;;;;25.43;9.40;;;;;;;-145.18;100.00;60484.78;5054782;28;20020;-67
2023/01/10 10:14:23;;;;;;;29.53;9.50;;;;;;;-145.18;100.00;60484.78;5054431;28;20025;-67
2023/01/10 10:16:51;;;;;;;24.93;8.33;;;;;;;-145.18;100.00;60484.78;5041066;28;20032;-68
2023/01/10 10:19:47;;;;;;;16.80;6.93;;;;;;;-145.18;100.00;60484.78;5048881;28;20469;-67
2023/01/10 10:22:23;;;;;;;23.20;7.30;;;;;;;-145.18;100.00;60484.78;5052982;28;20016;-67
2023/01/10 10:25:20;;;;;;;19.53;7.33;;;;;;;-145.18;100.00;60484.78;5054324;28;20025;-67
2023/01/10 10:28:16;;;;;;;22.90;7.73;;;;;;;-145.18;100.00;60484.78;5052513;28;20107;-70
2023/01/10 10:31:00;;;;;;;21.67;7.57;;;;;;;-145.18;100.00;60484.78;5046975;28;20068;-67
2023/01/10 10:33:37;;;;;;;23.70;6.80;;;;;;;-145.18;100.00;60484.78;5047809;28;20024;-67
2023/01/10 10:36:09;;;;;;;19.93;6.93;;;;;;;-145.18;100.00;60484.78;5053500;28;20024;-67
2023/01/10 10:38:41;;;;;;;23.87;7.17;;;;;;;-145.18;100.00;60484.78;5054099;28;20037;-68
2023/01/10 10:41:36;;;;;;;22.17;6.53;;;;;;;-145.18;100.00;60484.78;5053660;28;20476;-68
2023/01/10 10:44:17;;;;;;;26.47;8.57;;;;;;;-145.18;100.00;60484.78;5047479;28;20048;-68
2023/01/10 10:46:43;;;;;;;19.33;7.07;;;;;;;-145.18;100.00;60484.78;5054235;28;20435;-68
2023/01/10 10:49:21;;;;;;;29.53;7.40;;;;;;;-145.18;100.00;60484.78;5053977;28;20031;-67
2023/01/10 10:51:51;;;;;;;23.90;7.10;;;;;;;-145.18;100.00;60484.78;5052514;28;20106;-68
2023/01/10 10:54:16;;;;;;;21.40;6.17;;;;;;;-145.18;100.00;60484.78;5050814;28;20409;-68
2023/01/10 10:56:43;;;;;;;24.67;5.50;;;;;;;-145.18;100.00;60484.78;5053150;28;20020;-67
2023/01/10 10:59:16;;;;;;;16.87;4.97;;;;;;;-145.18;100.00;60484.78;5053669;28;20032;-67
2023/01/10 11:01:45;;;;;;;19.57;5.80;;;;;;;-145.18;100.00;60484.78;5054038;28;20384;-67
2023/01/10 11:04:14;;;;;;;21.73;7.17;;;;;;;-145.18;100.00;60484.78;5043310;28;20104;-68
2023/01/10 11:06:47;;;;;;;21.47;6.63;;;;;;;-145.18;100.00;60484.78;5052805;28;20377;-68
2023/01/10 11:09:18;;;;;;;18.03;6.47;;;;;;;-145.18;100.00;60484.78;5044613;28;20507;-68
2023/01/10 11:11:46;;;;;;;22.03;6.77;;;;;;;-145.18;100.00;60484.78;5050330;28;20436;-67
2023/01/10 11:14:12;;;;;;;27.53;6.53;;;;;;;-145.18;100.00;60484.78;5052979;28;20029;-67
2023/01/10 11:16:40;;;;;;;22.60;6.77;;;;;;;-145.18;100.00;60484.78;5048139;28;20075;-68
2023/01/10 11:19:16;;;;;;;21.67;7.03;;;;;;;-145.18;100.00;60484.78;5052696;28;20028;-67
2023/01/10 11:21:47;;;;;;;30.27;8.30;;;;;;;-145.18;100.00;60484.78;5046766;28;20025;-66
2023/01/10 11:24:28;;;;;;;18.83;6.25;;;;;;;-145.18;100.00;60484.78;5053644;28;20025;-67
2023/01/10 11:26:56;;;;;;;28.27;8.00;;;;;;;-145.18;100.00;60484.78;5053214;28;20033;-67